首页
METAR-TAF:

METAR-TAF

机场 :

Gaylord Regional Airport (Otsego County Airport)

Gaylord, 密歇根州, 美国

纬度: 45-00-59N, 经度: 084-41-20W, 海拔: 404米

当前天气观测

该预报发布于40分钟前的06:53 UTC
静风
温度 12°C
湿度 82%
气压 1017 hPa
能見度: 16.1公里
天空无云

METAR: KGLR 230653Z AUTO 00000KT 10SM CLR 12/09 A3003 RMK AO2 SLP168 T01170089

时间: 03:33 (07:33 UTC)


TAF: 丢失

超过4000个机场的气象观测和天气预报(METAR&TAF报告)。

可查询的气象台以黄色和红色小点在地图上表示。

将鼠标移到小点上方,可查看气象台名称。

然后点击查看天气观测和预报。

如需切换地图:点击带黑十字的绿色按钮放大地图;点击带横线的绿色按钮缩小地图;或者点击绿色箭头查看邻近地区的地图。


METAR-TAF: